createdAt,value
2023-03-06T00:00:35.024Z,7.72
2023-03-06T00:01:08.713Z,7.60
2023-03-06T00:01:40.465Z,7.85
2023-03-06T00:02:12.132Z,8.27
2023-03-06T00:02:44.561Z,8.25
2023-03-06T00:03:16.569Z,8.48
2023-03-06T00:03:48.385Z,8.52
2023-03-06T00:04:20.475Z,8.65
2023-03-06T00:04:53.449Z,9.63
2023-03-06T00:05:25.227Z,9.88
2023-03-06T00:05:58.956Z,8.48
2023-03-06T00:06:30.771Z,11.30
2023-03-06T00:07:02.478Z,10.20
2023-03-06T00:07:34.050Z,10.73
2023-03-06T00:08:06.295Z,10.10
2023-03-06T00:08:38.043Z,9.75
2023-03-06T00:09:10.673Z,10.07
2023-03-06T00:09:42.256Z,9.77
2023-03-06T00:10:19.932Z,9.93
2023-03-06T00:10:51.588Z,10.57
2023-03-06T00:11:23.188Z,9.95
2023-03-06T00:11:54.924Z,8.77
2023-03-06T00:12:27.643Z,10.80
2023-03-06T00:13:02.649Z,10.27
2023-03-06T00:13:35.143Z,10.98
2023-03-06T00:14:06.746Z,11.02
2023-03-06T00:14:38.316Z,10.18
2023-03-06T00:15:10.824Z,10.68
2023-03-06T00:15:42.534Z,11.02
2023-03-06T00:16:14.199Z,10.20
2023-03-06T00:16:45.869Z,10.40
2023-03-06T00:17:17.599Z,10.85
2023-03-06T00:17:49.259Z,9.75
2023-03-06T00:18:20.887Z,9.93
2023-03-06T00:18:52.729Z,10.88
2023-03-06T00:19:24.521Z,10.07
2023-03-06T00:19:56.299Z,11.02
2023-03-06T00:20:28.068Z,10.32
2023-03-06T00:21:00.121Z,10.70
2023-03-06T00:21:31.820Z,10.60
2023-03-06T00:22:03.409Z,10.68
2023-03-06T00:22:35.010Z,10.55
2023-03-06T00:23:08.462Z,10.57
2023-03-06T00:23:41.386Z,10.52
2023-03-06T00:24:13.083Z,10.18
2023-03-06T00:24:44.771Z,10.77
2023-03-06T00:25:19.142Z,9.85
2023-03-06T00:25:50.948Z,9.80
2023-03-06T00:26:22.584Z,10.65
2023-03-06T00:26:54.224Z,9.85
2023-03-06T00:27:26.392Z,9.02
2023-03-06T00:27:58.072Z,9.73
2023-03-06T00:28:31.577Z,9.30
2023-03-06T00:29:03.400Z,9.23
2023-03-06T00:29:36.154Z,10.35
2023-03-06T00:30:10.519Z,9.25
2023-03-06T00:30:42.232Z,9.30
2023-03-06T00:31:14.022Z,8.90
2023-03-06T00:31:48.045Z,9.88
2023-03-06T00:32:19.743Z,9.55
2023-03-06T00:32:53.039Z,8.35
2023-03-06T00:33:24.710Z,9.07
2023-03-06T00:33:56.323Z,9.20
2023-03-06T00:34:28.304Z,9.07
2023-03-06T00:35:00.047Z,8.93
2023-03-06T00:35:31.711Z,8.80
2023-03-06T00:36:06.641Z,8.48
2023-03-06T00:36:38.243Z,9.10
2023-03-06T00:37:09.829Z,8.30
2023-03-06T00:37:42.308Z,9.02
2023-03-06T00:38:14.321Z,9.55
2023-03-06T00:38:46.083Z,9.35
2023-03-06T00:39:17.864Z,9.68
2023-03-06T00:39:50.166Z,9.60
2023-03-06T00:40:22.274Z,9.13
2023-03-06T00:40:53.884Z,10.00
2023-03-06T00:41:27.145Z,9.60
2023-03-06T00:41:58.737Z,9.05
2023-03-06T00:42:30.369Z,9.93
2023-03-06T00:43:02.006Z,8.38
2023-03-06T00:43:33.586Z,9.75
2023-03-06T00:44:05.399Z,9.68
2023-03-06T00:44:37.204Z,9.35
2023-03-06T00:45:09.922Z,8.45
2023-03-06T00:45:41.557Z,8.82
2023-03-06T00:46:13.371Z,9.55
2023-03-06T00:46:44.959Z,9.82
2023-03-06T00:47:19.722Z,9.80
2023-03-06T00:47:51.445Z,8.90
2023-03-06T00:48:23.332Z,8.68
2023-03-06T00:48:54.938Z,9.02
2023-03-06T00:49:26.622Z,9.90
2023-03-06T00:49:58.301Z,9.27
2023-03-06T00:50:29.928Z,9.07
2023-03-06T00:51:01.882Z,9.18
2023-03-06T00:51:33.472Z,8.68
2023-03-06T00:52:05.512Z,9.00
2023-03-06T00:52:37.267Z,9.05
2023-03-06T00:53:11.081Z,9.88
2023-03-06T00:53:42.837Z,8.80
2023-03-06T00:54:14.522Z,9.13
2023-03-06T00:54:46.098Z,9.30
2023-03-06T00:55:17.669Z,9.45
2023-03-06T00:55:50.845Z,9.63
2023-03-06T00:56:22.638Z,9.50
2023-03-06T00:56:54.353Z,9.02
2023-03-06T00:57:26.034Z,8.95
2023-03-06T00:57:57.697Z,9.60
2023-03-06T00:58:29.295Z,9.93
2023-03-06T00:59:00.909Z,9.65
2023-03-06T00:59:32.718Z,9.73
2023-03-06T01:00:06.158Z,9.32
2023-03-06T01:00:38.181Z,10.10
2023-03-06T01:01:09.858Z,9.98
2023-03-06T01:01:41.608Z,10.60
2023-03-06T01:02:13.565Z,9.60
2023-03-06T01:02:45.364Z,9.88
2023-03-06T01:03:17.033Z,11.25
2023-03-06T01:03:48.822Z,13.73
2023-03-06T01:04:20.817Z,15.65
2023-03-06T01:04:52.595Z,14.98
2023-03-06T01:05:24.934Z,13.00
2023-03-06T01:05:56.786Z,13.65
2023-03-06T01:06:28.769Z,11.73
2023-03-06T01:07:00.397Z,8.75
2023-03-06T01:07:34.145Z,7.45
2023-03-06T01:08:06.591Z,10.00
2023-03-06T01:08:38.427Z,9.60
2023-03-06T01:09:10.121Z,9.77
2023-03-06T01:09:41.989Z,12.50
2023-03-06T01:10:13.653Z,11.35
2023-03-06T01:10:45.251Z,10.80
2023-03-06T01:11:16.820Z,9.43
2023-03-06T01:11:48.503Z,10.15
2023-03-06T01:12:22.796Z,10.32
2023-03-06T01:12:55.562Z,7.93
2023-03-06T01:13:27.312Z,8.68
2023-03-06T01:13:59.000Z,8.27
2023-03-06T01:14:32.049Z,9.88
2023-03-06T01:15:05.200Z,9.13
2023-03-06T01:15:36.903Z,7.22
2023-03-06T01:16:11.252Z,7.85
2023-03-06T01:16:42.934Z,9.40
2023-03-06T01:17:16.015Z,8.48
2023-03-06T01:17:48.302Z,8.18
2023-03-06T01:18:19.983Z,9.10
2023-03-06T01:18:51.597Z,8.55
2023-03-06T01:19:23.306Z,8.63
2023-03-06T01:19:54.947Z,8.35
2023-03-06T01:20:27.146Z,8.07
2023-03-06T01:20:58.829Z,7.78
2023-03-06T01:21:30.516Z,8.13
2023-03-06T01:22:02.103Z,8.35
2023-03-06T01:22:33.732Z,7.78
2023-03-06T01:23:05.367Z,7.80
2023-03-06T01:23:37.175Z,7.60
2023-03-06T01:24:09.085Z,7.57
2023-03-06T01:24:40.743Z,7.80
2023-03-06T01:25:13.080Z,7.43
2023-03-06T01:25:45.148Z,7.15
2023-03-06T01:26:16.937Z,7.63
2023-03-06T01:26:48.662Z,7.93
2023-03-06T01:27:20.301Z,7.57
2023-03-06T01:27:53.160Z,7.85
2023-03-06T01:28:25.104Z,7.93
2023-03-06T01:28:57.666Z,7.53
2023-03-06T01:29:29.409Z,7.20
2023-03-06T01:30:01.020Z,7.18
2023-03-06T01:30:32.667Z,7.20
2023-03-06T01:31:05.599Z,7.50
2023-03-06T01:31:37.662Z,7.57
2023-03-06T01:32:09.416Z,7.80
2023-03-06T01:32:41.153Z,6.72
2023-03-06T01:33:12.907Z,7.57
2023-03-06T01:33:44.640Z,7.00
2023-03-06T01:34:16.256Z,7.22
2023-03-06T01:34:47.892Z,6.93
2023-03-06T01:35:19.701Z,7.10
2023-03-06T01:35:51.375Z,6.57
2023-03-06T01:36:22.982Z,6.78
2023-03-06T01:36:54.603Z,7.28
2023-03-06T01:37:26.184Z,7.22
2023-03-06T01:37:57.786Z,7.40
2023-03-06T01:38:29.819Z,7.47
2023-03-06T01:39:01.737Z,6.60
2023-03-06T01:39:33.519Z,6.88
2023-03-06T01:40:07.017Z,6.53
2023-03-06T01:40:39.084Z,6.75
2023-03-06T01:41:17.362Z,6.65
2023-03-06T01:41:48.980Z,6.72
2023-03-06T01:42:20.596Z,6.63
2023-03-06T01:42:52.343Z,6.70
2023-03-06T01:43:29.714Z,6.90
2023-03-06T01:44:02.369Z,6.15
2023-03-06T01:44:34.313Z,6.47
2023-03-06T01:45:06.103Z,6.63
2023-03-06T01:45:37.837Z,6.35
2023-03-06T01:46:31.094Z,6.38
2023-03-06T01:47:02.829Z,6.40
2023-03-06T01:47:34.476Z,6.07
2023-03-06T01:48:06.111Z,6.13
2023-03-06T01:48:38.382Z,6.55
2023-03-06T01:49:21.151Z,6.13
2023-03-06T01:49:53.526Z,5.97
2023-03-06T01:50:25.516Z,6.00
2023-03-06T01:50:57.197Z,6.57
2023-03-06T01:51:32.506Z,6.30
2023-03-06T01:52:09.048Z,6.63
2023-03-06T01:52:50.833Z,6.43
2023-03-06T01:53:22.676Z,6.50
2023-03-06T01:53:55.600Z,7.32
2023-03-06T01:54:41.732Z,6.10
2023-03-06T01:55:20.609Z,6.13
2023-03-06T01:55:52.558Z,5.90
2023-03-06T01:56:25.464Z,6.32
2023-03-06T01:57:03.493Z,6.15
2023-03-06T01:57:43.158Z,6.75
2023-03-06T01:58:18.244Z,6.47
2023-03-06T01:58:51.422Z,6.53
2023-03-06T01:59:24.764Z,6.38
2023-03-06T02:00:04.046Z,6.85
2023-03-06T02:00:35.733Z,6.85
2023-03-06T02:01:07.402Z,6.32
2023-03-06T02:01:40.017Z,6.28
2023-03-06T02:02:14.308Z,6.32
2023-03-06T02:03:09.763Z,6.57
2023-03-06T02:03:43.482Z,6.93
2023-03-06T02:04:17.321Z,6.82
2023-03-06T02:04:49.038Z,6.85
2023-03-06T02:05:21.421Z,6.22
2023-03-06T02:05:53.301Z,6.25
2023-03-06T02:06:26.080Z,6.78
2023-03-06T02:07:00.568Z,6.78
2023-03-06T02:07:32.874Z,6.78
2023-03-06T02:08:05.897Z,6.55
2023-03-06T02:08:38.070Z,6.35
2023-03-06T02:09:11.245Z,6.32
2023-03-06T02:09:42.829Z,6.45
2023-03-06T02:10:15.793Z,6.47
2023-03-06T02:10:59.430Z,6.65
2023-03-06T02:11:31.200Z,6.40
2023-03-06T02:12:07.934Z,6.22
2023-03-06T02:12:42.367Z,6.80
2023-03-06T02:13:13.987Z,6.70
2023-03-06T02:13:46.736Z,6.90
2023-03-06T02:14:18.542Z,6.38
2023-03-06T02:14:50.741Z,6.95
2023-03-06T02:15:25.805Z,6.68
2023-03-06T02:15:58.290Z,6.57
2023-03-06T02:16:31.906Z,6.43
2023-03-06T02:17:03.893Z,6.97
2023-03-06T02:17:36.208Z,6.85
2023-03-06T02:18:08.205Z,5.97
2023-03-06T02:18:41.988Z,6.47
2023-03-06T02:19:34.087Z,6.80
2023-03-06T02:20:29.857Z,6.03
2023-03-06T02:21:10.207Z,6.40
2023-03-06T02:21:42.189Z,7.00
2023-03-06T02:22:13.794Z,7.32
2023-03-06T02:22:48.086Z,6.30
2023-03-06T02:23:34.005Z,7.25
2023-03-06T02:24:05.610Z,6.80
2023-03-06T02:24:37.169Z,6.57
2023-03-06T02:25:22.423Z,6.60
2023-03-06T02:25:54.507Z,7.35
2023-03-06T02:26:27.807Z,6.85
2023-03-06T02:27:00.520Z,6.63
2023-03-06T02:27:32.704Z,6.07
2023-03-06T02:28:06.228Z,7.68
2023-03-06T02:28:39.932Z,6.82
2023-03-06T02:29:11.850Z,7.38
2023-03-06T02:29:43.721Z,7.45
2023-03-06T02:30:17.527Z,7.55
2023-03-06T02:30:51.626Z,6.97
2023-03-06T02:31:29.451Z,7.72
2023-03-06T02:32:01.424Z,7.63
2023-03-06T02:32:33.118Z,6.75
2023-03-06T02:33:05.693Z,7.28
2023-03-06T02:33:37.298Z,7.22
2023-03-06T02:34:15.006Z,6.97
2023-03-06T02:34:53.541Z,7.72
2023-03-06T02:35:30.815Z,7.38
2023-03-06T02:36:05.742Z,6.85
2023-03-06T02:36:43.190Z,7.07
2023-03-06T02:37:14.808Z,7.60
2023-03-06T02:37:47.193Z,7.30
2023-03-06T02:38:22.106Z,7.65
2023-03-06T02:38:53.815Z,7.72
2023-03-06T02:39:28.348Z,7.13
2023-03-06T02:40:08.354Z,7.60
2023-03-06T02:40:43.829Z,7.47
2023-03-06T02:41:15.854Z,7.18
2023-03-06T02:41:47.523Z,7.03
2023-03-06T02:42:25.331Z,7.10
2023-03-06T02:42:58.755Z,7.45
2023-03-06T02:43:34.367Z,7.10
2023-03-06T02:44:06.048Z,7.32
2023-03-06T02:44:37.748Z,7.18
2023-03-06T02:45:11.237Z,7.30
2023-03-06T02:45:46.456Z,7.90
2023-03-06T02:46:18.376Z,7.55
2023-03-06T02:46:50.183Z,7.15
2023-03-06T02:47:21.836Z,7.72
2023-03-06T02:47:53.496Z,7.68
2023-03-06T02:48:25.252Z,7.57
2023-03-06T02:48:56.924Z,7.65
2023-03-06T02:49:28.540Z,7.47
2023-03-06T02:50:00.206Z,7.93
2023-03-06T02:50:32.171Z,7.50
2023-03-06T02:51:03.785Z,7.93
2023-03-06T02:51:35.448Z,7.20
2023-03-06T02:52:08.043Z,7.43
2023-03-06T02:52:39.632Z,8.48
2023-03-06T02:53:14.269Z,7.80
2023-03-06T02:53:45.898Z,7.50
2023-03-06T02:54:20.531Z,7.97
2023-03-06T02:54:52.151Z,7.85
2023-03-06T02:55:23.861Z,7.47
2023-03-06T02:55:55.659Z,7.55
2023-03-06T02:56:27.343Z,8.27
2023-03-06T02:56:58.987Z,8.13
2023-03-06T02:57:30.605Z,7.38
2023-03-06T02:58:02.457Z,7.63
2023-03-06T02:58:34.126Z,7.32
2023-03-06T02:59:05.763Z,8.20
2023-03-06T02:59:37.403Z,7.45
2023-03-06T03:00:10.117Z,8.10
2023-03-06T03:00:41.720Z,7.80
2023-03-06T03:01:13.545Z,7.55
2023-03-06T03:01:45.671Z,7.82
2023-03-06T03:02:17.335Z,7.53
2023-03-06T03:02:49.018Z,7.80
2023-03-06T03:03:20.650Z,7.53
2023-03-06T03:03:52.264Z,7.80
2023-03-06T03:04:23.937Z,8.23
2023-03-06T03:04:55.671Z,7.60
2023-03-06T03:05:27.502Z,7.43
2023-03-06T03:06:00.254Z,7.55
2023-03-06T03:06:31.838Z,8.00
2023-03-06T03:07:03.738Z,7.50
2023-03-06T03:07:35.494Z,7.75
2023-03-06T03:08:07.122Z,7.75
2023-03-06T03:08:38.728Z,7.65
2023-03-06T03:09:10.400Z,7.57
2023-03-06T03:09:42.289Z,7.97
2023-03-06T03:10:15.021Z,7.72
2023-03-06T03:10:46.743Z,7.68
2023-03-06T03:11:18.546Z,7.63
2023-03-06T03:11:50.219Z,7.32
2023-03-06T03:12:22.512Z,7.78
2023-03-06T03:12:54.117Z,7.10
2023-03-06T03:13:25.765Z,8.20
2023-03-06T03:13:57.629Z,8.07
2023-03-06T03:14:29.398Z,7.63
2023-03-06T03:15:01.021Z,7.75
2023-03-06T03:15:32.834Z,8.05
2023-03-06T03:16:07.905Z,7.22
2023-03-06T03:16:39.654Z,7.28
2023-03-06T03:17:11.351Z,7.93
2023-03-06T03:17:43.107Z,7.43
2023-03-06T03:18:14.755Z,7.10
2023-03-06T03:18:48.115Z,7.82
2023-03-06T03:19:19.844Z,7.30
2023-03-06T03:19:51.748Z,7.93
2023-03-06T03:20:24.046Z,7.60
2023-03-06T03:20:56.327Z,8.10
2023-03-06T03:21:27.950Z,8.15
2023-03-06T03:21:59.568Z,7.70
2023-03-06T03:22:31.595Z,7.43
2023-03-06T03:23:03.770Z,7.28
2023-03-06T03:23:35.388Z,7.78
2023-03-06T03:24:07.668Z,8.13
2023-03-06T03:24:40.067Z,7.28
2023-03-06T03:25:11.822Z,7.60
2023-03-06T03:25:43.600Z,7.80
2023-03-06T03:26:18.781Z,7.95
2023-03-06T03:26:50.522Z,7.30
2023-03-06T03:27:22.352Z,8.25
2023-03-06T03:27:54.068Z,7.75
2023-03-06T03:28:25.668Z,7.80
2023-03-06T03:28:57.318Z,7.90
2023-03-06T03:29:28.957Z,7.90
2023-03-06T03:30:01.141Z,7.10
2023-03-06T03:30:32.838Z,7.15
2023-03-06T03:31:06.517Z,7.65
2023-03-06T03:31:38.225Z,7.55
2023-03-06T03:32:09.947Z,7.15
2023-03-06T03:32:41.961Z,7.10
2023-03-06T03:33:13.639Z,7.80
2023-03-06T03:33:45.312Z,7.35
2023-03-06T03:34:18.958Z,7.35
2023-03-06T03:34:50.728Z,7.32
2023-03-06T03:35:22.456Z,7.63
2023-03-06T03:36:01.562Z,7.35
2023-03-06T03:36:33.186Z,7.00
2023-03-06T03:37:04.807Z,7.53
2023-03-06T03:37:36.764Z,8.15
2023-03-06T03:38:08.534Z,7.63
2023-03-06T03:38:40.281Z,7.35
2023-03-06T03:39:12.029Z,7.65
2023-03-06T03:39:43.643Z,7.75
2023-03-06T03:40:15.258Z,7.80
2023-03-06T03:40:46.942Z,7.63
2023-03-06T03:41:18.552Z,8.05
2023-03-06T03:41:50.398Z,7.30
2023-03-06T03:42:22.311Z,8.20
2023-03-06T03:42:53.983Z,8.38
2023-03-06T03:43:25.666Z,7.32
2023-03-06T03:43:57.306Z,7.93
2023-03-06T03:44:28.975Z,7.35
2023-03-06T03:45:00.592Z,7.85
2023-03-06T03:45:32.170Z,7.85
2023-03-06T03:46:04.015Z,7.95
2023-03-06T03:46:36.253Z,7.55
2023-03-06T03:47:07.900Z,7.68
2023-03-06T03:47:40.629Z,7.35
2023-03-06T03:48:12.497Z,7.82
2023-03-06T03:48:44.117Z,7.15
2023-03-06T03:49:16.003Z,7.18
2023-03-06T03:49:47.692Z,7.50
2023-03-06T03:50:19.564Z,7.60
2023-03-06T03:50:51.240Z,7.70
2023-03-06T03:51:23.107Z,7.90
2023-03-06T03:51:54.725Z,8.18
2023-03-06T03:52:26.493Z,8.52
2023-03-06T03:52:58.103Z,7.93
2023-03-06T03:53:29.678Z,7.85
2023-03-06T03:54:01.758Z,7.75
2023-03-06T03:54:34.107Z,7.80
2023-03-06T03:55:06.230Z,7.63
2023-03-06T03:55:37.888Z,8.25
2023-03-06T03:56:10.458Z,7.70
2023-03-06T03:56:42.370Z,7.32
2023-03-06T03:57:14.138Z,7.38
2023-03-06T03:57:45.937Z,7.38
2023-03-06T03:58:17.586Z,6.80
2023-03-06T03:58:49.203Z,7.47
2023-03-06T03:59:21.188Z,7.32
2023-03-06T03:59:52.935Z,8.05
2023-03-06T04:00:24.745Z,7.60
2023-03-06T04:00:56.431Z,8.60
2023-03-06T04:01:28.112Z,8.23
2023-03-06T04:02:00.230Z,8.00
2023-03-06T04:02:31.923Z,7.57
2023-03-06T04:03:03.704Z,7.05
2023-03-06T04:03:35.461Z,7.82
2023-03-06T04:04:07.396Z,8.07
2023-03-06T04:04:39.058Z,7.70
2023-03-06T04:05:13.064Z,7.90
2023-03-06T04:05:44.693Z,8.00
2023-03-06T04:06:16.682Z,8.70
2023-03-06T04:06:48.818Z,7.95
2023-03-06T04:07:20.431Z,8.07
2023-03-06T04:07:52.266Z,8.40
2023-03-06T04:08:25.290Z,8.27
2023-03-06T04:08:57.526Z,8.80
2023-03-06T04:09:29.176Z,8.23
2023-03-06T04:10:00.764Z,8.18
2023-03-06T04:10:32.711Z,8.30
2023-03-06T04:11:04.695Z,8.63
2023-03-06T04:11:36.534Z,8.95
2023-03-06T04:12:08.369Z,8.85
2023-03-06T04:12:40.119Z,8.30
2023-03-06T04:13:11.813Z,8.40
2023-03-06T04:13:43.573Z,9.00
2023-03-06T04:14:15.214Z,8.57
2023-03-06T04:14:47.023Z,8.00
2023-03-06T04:15:18.673Z,8.45
2023-03-06T04:15:52.735Z,8.63
2023-03-06T04:16:24.502Z,8.07
2023-03-06T04:16:56.197Z,8.65
2023-03-06T04:17:28.244Z,8.50
2023-03-06T04:17:59.916Z,8.93
2023-03-06T04:18:31.600Z,8.43
2023-03-06T04:19:03.739Z,7.95
2023-03-06T04:19:35.694Z,8.88
2023-03-06T04:20:08.219Z,8.27
2023-03-06T04:20:39.832Z,9.10
2023-03-06T04:21:11.405Z,8.57
2023-03-06T04:21:43.071Z,8.05
2023-03-06T04:22:14.659Z,8.65
2023-03-06T04:22:46.238Z,8.13
2023-03-06T04:23:18.929Z,8.10
2023-03-06T04:23:50.692Z,8.63
2023-03-06T04:24:22.289Z,8.65
2023-03-06T04:24:54.062Z,9.00
2023-03-06T04:25:25.637Z,8.85
2023-03-06T04:25:57.347Z,8.77
2023-03-06T04:26:29.040Z,8.88
2023-03-06T04:27:00.720Z,9.18
2023-03-06T04:27:32.340Z,8.90
2023-03-06T04:28:04.682Z,9.57
2023-03-06T04:28:36.308Z,9.15
2023-03-06T04:29:07.975Z,9.82
2023-03-06T04:29:39.561Z,9.38
2023-03-06T04:30:12.078Z,9.77
2023-03-06T04:30:43.811Z,9.20
2023-03-06T04:31:15.542Z,8.48
2023-03-06T04:31:47.154Z,9.20
2023-03-06T04:32:21.357Z,9.13
2023-03-06T04:32:53.178Z,9.25
2023-03-06T04:33:24.788Z,8.57
2023-03-06T04:33:56.429Z,9.73
2023-03-06T04:34:28.031Z,9.32
2023-03-06T04:34:59.592Z,10.35
2023-03-06T04:35:31.337Z,10.98
2023-03-06T04:36:03.112Z,10.65
2023-03-06T04:36:35.387Z,11.25
2023-03-06T04:37:08.435Z,10.70
2023-03-06T04:37:40.127Z,10.48
2023-03-06T04:38:11.854Z,10.70
2023-03-06T04:38:43.405Z,10.65
2023-03-06T04:39:16.775Z,9.98
2023-03-06T04:39:48.518Z,9.07
2023-03-06T04:40:23.740Z,9.95
2023-03-06T04:40:55.533Z,9.52
2023-03-06T04:41:27.435Z,10.63
2023-03-06T04:41:59.254Z,11.38
2023-03-06T04:42:30.903Z,11.05
2023-03-06T04:43:03.666Z,8.93
2023-03-06T04:43:35.248Z,9.38
2023-03-06T04:44:07.549Z,9.30
2023-03-06T04:44:39.149Z,10.20
2023-03-06T04:45:11.143Z,10.77
2023-03-06T04:45:43.035Z,11.02
2023-03-06T04:46:14.694Z,11.38
2023-03-06T04:46:46.277Z,11.38
2023-03-06T04:47:19.220Z,11.70
2023-03-06T04:47:51.055Z,11.15
2023-03-06T04:48:22.674Z,11.82
2023-03-06T04:48:54.543Z,12.32
2023-03-06T04:49:26.174Z,11.65
2023-03-06T04:49:57.732Z,11.98
2023-03-06T04:50:32.630Z,11.85
2023-03-06T04:51:04.728Z,12.02
2023-03-06T04:51:37.019Z,11.73
2023-03-06T04:52:09.063Z,12.50
2023-03-06T04:52:40.726Z,12.15
2023-03-06T04:53:13.523Z,12.93
2023-03-06T04:53:45.327Z,12.98
2023-03-06T04:54:19.006Z,12.30
2023-03-06T04:54:50.709Z,12.75
2023-03-06T04:55:22.335Z,14.63
2023-03-06T04:55:53.952Z,15.57
2023-03-06T04:56:25.562Z,17.33
2023-03-06T04:56:57.439Z,15.70
2023-03-06T04:57:29.170Z,15.60
2023-03-06T04:58:01.016Z,13.57
2023-03-06T04:58:32.711Z,14.75
2023-03-06T04:59:04.877Z,14.38
2023-03-06T04:59:38.842Z,14.57
2023-03-06T05:00:17.756Z,13.55
2023-03-06T05:00:49.536Z,13.65
2023-03-06T05:01:21.294Z,14.40
2023-03-06T05:01:53.036Z,14.55
2023-03-06T05:02:24.817Z,12.40
2023-03-06T05:02:57.951Z,12.85
2023-03-06T05:03:29.639Z,13.75
2023-03-06T05:04:01.330Z,13.38
2023-03-06T05:04:32.937Z,15.30
2023-03-06T05:05:05.439Z,14.85
2023-03-06T05:05:37.125Z,15.52
2023-03-06T05:06:08.743Z,15.77
2023-03-06T05:06:40.415Z,19.27
2023-03-06T05:07:12.088Z,17.83
2023-03-06T05:07:44.352Z,19.45
2023-03-06T05:08:16.860Z,20.70
2023-03-06T05:08:48.493Z,17.92
2023-03-06T05:09:20.112Z,16.98
2023-03-06T05:09:51.762Z,16.17
2023-03-06T05:10:23.989Z,16.73
2023-03-06T05:11:00.538Z,16.05
2023-03-06T05:11:32.512Z,14.90
2023-03-06T05:12:04.373Z,14.35
2023-03-06T05:12:37.511Z,13.57
2023-03-06T05:13:09.466Z,13.85
2023-03-06T05:13:41.086Z,10.10
2023-03-06T05:14:12.658Z,10.30
2023-03-06T05:14:46.669Z,10.98
2023-03-06T05:15:20.107Z,9.52
2023-03-06T05:15:52.439Z,8.80
2023-03-06T05:16:24.107Z,9.00
2023-03-06T05:16:55.858Z,8.35
2023-03-06T05:17:27.472Z,7.95
2023-03-06T05:17:59.354Z,8.38
2023-03-06T05:18:31.771Z,8.45
2023-03-06T05:19:03.631Z,8.95
2023-03-06T05:19:35.286Z,8.95
2023-03-06T05:20:09.797Z,9.60
2023-03-06T05:20:41.583Z,8.93
2023-03-06T05:21:13.253Z,9.10
2023-03-06T05:21:44.847Z,9.57
2023-03-06T05:22:16.560Z,9.30
2023-03-06T05:22:48.164Z,8.20
2023-03-06T05:23:19.846Z,8.60
2023-03-06T05:23:51.484Z,9.73
2023-03-06T05:24:23.155Z,9.50
2023-03-06T05:24:54.732Z,9.13
2023-03-06T05:25:26.360Z,9.20
2023-03-06T05:25:58.838Z,9.00
2023-03-06T05:26:30.775Z,10.10
2023-03-06T05:27:02.503Z,12.55
2023-03-06T05:27:34.698Z,13.48
2023-03-06T05:28:07.155Z,13.23
2023-03-06T05:28:39.779Z,12.82
2023-03-06T05:29:11.363Z,13.27
2023-03-06T05:29:42.990Z,12.88
2023-03-06T05:30:15.384Z,13.40
2023-03-06T05:30:47.089Z,13.35
2023-03-06T05:31:19.022Z,13.05
2023-03-06T05:31:50.612Z,13.73
2023-03-06T05:32:22.632Z,12.75
2023-03-06T05:32:54.478Z,12.88
2023-03-06T05:33:26.856Z,12.85
2023-03-06T05:33:59.151Z,13.27
2023-03-06T05:34:30.760Z,13.93
2023-03-06T05:35:02.471Z,14.43
2023-03-06T05:35:34.450Z,15.35
2023-03-06T05:36:09.264Z,12.88
2023-03-06T05:36:41.554Z,13.05
2023-03-06T05:37:13.187Z,13.43
2023-03-06T05:37:45.161Z,14.02
2023-03-06T05:38:16.945Z,13.75
2023-03-06T05:38:48.607Z,14.18
2023-03-06T05:39:21.006Z,12.73
2023-03-06T05:39:52.754Z,12.85
2023-03-06T05:40:24.379Z,14.27
2023-03-06T05:40:56.188Z,14.48
2023-03-06T05:41:27.938Z,14.98
2023-03-06T05:41:59.789Z,15.75
2023-03-06T05:42:31.370Z,15.10
2023-03-06T05:43:02.983Z,14.60
2023-03-06T05:43:34.710Z,14.73
2023-03-06T05:44:06.600Z,14.80
2023-03-06T05:44:38.242Z,13.52
2023-03-06T05:45:10.612Z,13.85
2023-03-06T05:45:42.374Z,13.63
2023-03-06T05:46:14.238Z,12.25
2023-03-06T05:46:45.988Z,12.45
2023-03-06T05:47:17.681Z,12.50
2023-03-06T05:47:49.285Z,12.18
2023-03-06T05:48:20.848Z,11.57
2023-03-06T05:48:55.413Z,11.75
2023-03-06T05:49:27.436Z,10.43
2023-03-06T05:49:59.389Z,9.48
2023-03-06T05:50:31.110Z,10.13
2023-03-06T05:51:03.687Z,10.10
2023-03-06T05:51:35.301Z,9.73
2023-03-06T05:52:08.190Z,10.30
2023-03-06T05:52:40.221Z,9.95
2023-03-06T05:53:11.927Z,10.48
2023-03-06T05:53:43.705Z,11.20
2023-03-06T05:54:15.349Z,9.77
2023-03-06T05:54:50.511Z,9.32
2023-03-06T05:55:24.168Z,8.77
2023-03-06T05:56:05.662Z,8.73
2023-03-06T05:56:37.229Z,8.43
2023-03-06T05:57:08.894Z,7.88
2023-03-06T05:57:40.671Z,8.13
2023-03-06T05:58:12.280Z,8.13
2023-03-06T05:58:44.053Z,8.23
2023-03-06T05:59:15.683Z,8.85
2023-03-06T05:59:47.924Z,9.05
2023-03-06T06:00:20.265Z,8.68
2023-03-06T06:00:52.461Z,8.70
2023-03-06T06:01:25.433Z,8.65
2023-03-06T06:01:57.715Z,8.52
2023-03-06T06:02:29.339Z,8.57
2023-03-06T06:03:02.349Z,9.32
2023-03-06T06:03:34.048Z,9.20
2023-03-06T06:04:05.698Z,8.75
2023-03-06T06:04:37.538Z,8.77
2023-03-06T06:05:12.791Z,9.57
2023-03-06T06:05:45.067Z,9.25
2023-03-06T06:06:16.924Z,9.85
2023-03-06T06:06:55.538Z,9.25
2023-03-06T06:07:27.303Z,9.10
2023-03-06T06:07:58.969Z,8.90
2023-03-06T06:08:30.706Z,10.68
2023-03-06T06:09:02.286Z,10.80
2023-03-06T06:09:34.159Z,9.57
2023-03-06T06:10:07.018Z,10.52
2023-03-06T06:10:39.595Z,9.95
2023-03-06T06:11:13.171Z,10.23
2023-03-06T06:11:44.793Z,10.45
2023-03-06T06:12:16.501Z,9.93
2023-03-06T06:12:48.110Z,10.00
2023-03-06T06:13:19.687Z,10.50
2023-03-06T06:13:51.425Z,10.15
2023-03-06T06:14:23.287Z,10.05
2023-03-06T06:14:55.020Z,9.95
2023-03-06T06:15:29.007Z,10.30
2023-03-06T06:16:06.035Z,10.98
2023-03-06T06:16:37.629Z,10.32
2023-03-06T06:17:09.375Z,10.20
2023-03-06T06:17:40.944Z,11.45
2023-03-06T06:18:12.565Z,10.43
2023-03-06T06:18:44.615Z,10.73
2023-03-06T06:19:20.335Z,11.48
2023-03-06T06:19:52.062Z,12.43
2023-03-06T06:20:25.252Z,12.75
2023-03-06T06:20:56.833Z,12.65
2023-03-06T06:21:28.461Z,10.90
2023-03-06T06:22:02.759Z,10.82
2023-03-06T06:22:36.985Z,11.50
2023-03-06T06:23:10.907Z,10.98
2023-03-06T06:23:42.587Z,11.82
2023-03-06T06:24:15.855Z,10.77
2023-03-06T06:24:47.625Z,10.38
2023-03-06T06:25:19.384Z,10.90
2023-03-06T06:25:51.575Z,10.07
2023-03-06T06:26:23.318Z,10.43
2023-03-06T06:26:56.812Z,11.57
2023-03-06T06:27:28.439Z,10.90
2023-03-06T06:28:00.046Z,11.65
2023-03-06T06:28:32.306Z,11.82
2023-03-06T06:29:05.389Z,10.85
2023-03-06T06:29:37.016Z,11.05
2023-03-06T06:30:11.710Z,10.98
2023-03-06T06:30:43.339Z,11.73
2023-03-06T06:31:15.117Z,12.20
2023-03-06T06:31:47.296Z,16.30
2023-03-06T06:32:19.073Z,16.10
2023-03-06T06:32:51.040Z,14.18
2023-03-06T06:33:23.820Z,15.18
2023-03-06T06:33:55.376Z,14.88
2023-03-06T06:34:28.165Z,15.63
2023-03-06T06:34:59.949Z,15.55
2023-03-06T06:35:35.911Z,14.82
2023-03-06T06:36:16.627Z,15.60
2023-03-06T06:36:53.142Z,15.50
2023-03-06T06:37:26.100Z,15.63
2023-03-06T06:37:57.765Z,16.10
2023-03-06T06:38:29.503Z,14.85
2023-03-06T06:39:01.172Z,19.75
2023-03-06T06:39:32.873Z,17.52
2023-03-06T06:40:05.726Z,20.27
2023-03-06T06:40:37.328Z,19.52
2023-03-06T06:41:38.768Z,20.55
2023-03-06T06:42:21.737Z,19.35
2023-03-06T06:42:53.900Z,18.95
2023-03-06T06:43:25.483Z,18.70
2023-03-06T06:43:59.176Z,19.20
2023-03-06T06:44:30.906Z,18.83
2023-03-06T06:45:05.393Z,19.20
2023-03-06T06:45:37.516Z,20.15
2023-03-06T06:46:32.341Z,18.48
2023-03-06T06:47:52.903Z,15.95
2023-03-06T06:48:24.735Z,15.30
2023-03-06T06:48:56.419Z,16.15
2023-03-06T06:49:28.048Z,15.95
2023-03-06T06:49:59.784Z,15.40
2023-03-06T06:50:31.483Z,14.57
2023-03-06T06:51:03.175Z,15.43
2023-03-06T06:51:34.802Z,14.48
2023-03-06T06:52:07.354Z,15.25
2023-03-06T06:52:39.158Z,14.77
2023-03-06T06:53:10.781Z,15.77
2023-03-06T06:53:42.649Z,14.63
2023-03-06T06:54:14.281Z,15.55
2023-03-06T06:54:46.033Z,13.40
2023-03-06T06:55:17.694Z,12.43
2023-03-06T06:55:49.774Z,13.35
2023-03-06T06:56:21.390Z,14.85
2023-03-06T06:56:53.033Z,16.13
2023-03-06T06:57:24.663Z,16.08
2023-03-06T06:57:56.301Z,15.45
2023-03-06T06:58:27.922Z,15.07
2023-03-06T06:59:15.593Z,13.95
2023-03-06T06:59:48.539Z,12.38
2023-03-06T07:00:20.653Z,12.45
2023-03-06T07:00:52.345Z,12.68
2023-03-06T07:01:24.043Z,12.43
2023-03-06T07:01:55.712Z,12.60
2023-03-06T07:02:27.385Z,13.15
2023-03-06T07:02:58.983Z,14.48
2023-03-06T07:03:30.855Z,13.18
2023-03-06T07:04:02.583Z,14.05
2023-03-06T07:04:34.235Z,16.63
2023-03-06T07:05:06.737Z,17.13
2023-03-06T07:05:38.525Z,17.85
2023-03-06T07:06:10.355Z,17.95
2023-03-06T07:06:43.008Z,17.40
2023-03-06T07:07:14.826Z,17.55
2023-03-06T07:07:46.584Z,16.80
2023-03-06T07:08:18.282Z,16.55
2023-03-06T07:08:50.053Z,17.02
2023-03-06T07:09:22.438Z,17.35
2023-03-06T07:09:55.474Z,17.08
2023-03-06T07:10:27.083Z,17.40